createdAt,value
2022-07-28T00:00:12.789Z,47.40
2022-07-28T00:02:40.039Z,47.50
2022-07-28T00:05:07.924Z,47.50
2022-07-28T00:07:35.231Z,47.70
2022-07-28T00:10:02.413Z,47.80
2022-07-28T00:12:30.984Z,48.50
2022-07-28T00:14:58.227Z,49.10
2022-07-28T00:17:25.557Z,49.50
2022-07-28T00:19:52.778Z,49.70
2022-07-28T00:22:20.258Z,49.70
2022-07-28T00:24:49.060Z,49.80
2022-07-28T00:27:19.169Z,49.70
2022-07-28T00:29:50.343Z,49.60
2022-07-28T00:32:19.241Z,49.60
2022-07-28T00:34:47.059Z,49.70
2022-07-28T00:37:15.068Z,50.10
2022-07-28T00:39:43.323Z,50.20
2022-07-28T00:42:10.673Z,50.20
2022-07-28T00:44:41.877Z,50.40
2022-07-28T00:47:09.579Z,50.60
2022-07-28T00:49:36.891Z,50.50
2022-07-28T00:52:06.038Z,50.10
2022-07-28T00:54:34.177Z,49.30
2022-07-28T00:57:01.610Z,48.80
2022-07-28T00:59:28.960Z,48.60
2022-07-28T01:01:56.604Z,48.60
2022-07-28T01:04:25.852Z,48.70
2022-07-28T01:07:12.346Z,48.90
2022-07-28T01:10:11.933Z,48.90
2022-07-28T01:13:10.058Z,49.10
2022-07-28T01:15:42.444Z,49.20
2022-07-28T01:18:20.379Z,49.20
2022-07-28T01:20:53.154Z,49.20
2022-07-28T01:23:32.563Z,49.00
2022-07-28T01:26:15.045Z,48.80
2022-07-28T01:29:20.039Z,49.00
2022-07-28T01:32:04.845Z,49.00
2022-07-28T01:34:49.079Z,49.30
2022-07-28T01:37:21.823Z,49.30
2022-07-28T01:39:52.322Z,49.50
2022-07-28T01:42:23.085Z,50.40
2022-07-28T01:44:54.046Z,52.20
2022-07-28T01:47:23.665Z,53.30
2022-07-28T01:49:52.753Z,53.90
2022-07-28T01:52:22.870Z,54.20
2022-07-28T01:54:52.034Z,54.50
2022-07-28T01:57:20.997Z,55.10
2022-07-28T01:59:49.162Z,54.70
2022-07-28T02:02:21.364Z,54.80
2022-07-28T02:04:49.918Z,55.10
2022-07-28T02:07:20.588Z,55.40
2022-07-28T02:09:48.698Z,55.50
2022-07-28T02:12:18.429Z,55.70
2022-07-28T02:14:50.626Z,55.80
2022-07-28T02:17:25.475Z,55.70
2022-07-28T02:19:53.595Z,55.80
2022-07-28T02:22:21.887Z,56.00
2022-07-28T02:24:51.647Z,56.40
2022-07-28T02:27:22.005Z,57.10
2022-07-28T02:29:53.371Z,57.90
2022-07-28T02:32:28.797Z,58.20
2022-07-28T02:35:01.151Z,58.80
2022-07-28T02:37:36.243Z,59.10
2022-07-28T02:40:06.091Z,59.60
2022-07-28T02:42:36.282Z,60.20
2022-07-28T02:45:06.875Z,60.80
2022-07-28T02:47:40.661Z,61.10
2022-07-28T02:50:10.654Z,61.50
2022-07-28T02:52:39.614Z,60.90
2022-07-28T02:55:07.953Z,60.60
2022-07-28T02:57:36.302Z,59.90
2022-07-28T03:00:04.389Z,59.50
2022-07-28T03:02:33.882Z,59.90
2022-07-28T03:05:02.905Z,60.40
2022-07-28T03:07:36.434Z,60.80
2022-07-28T03:10:33.139Z,60.70
2022-07-28T03:13:04.501Z,60.80
2022-07-28T03:15:32.217Z,61.10
2022-07-28T03:18:04.564Z,61.20
2022-07-28T03:20:33.305Z,61.10
2022-07-28T03:23:00.910Z,61.00
2022-07-28T03:25:57.257Z,60.80
2022-07-28T03:28:26.318Z,60.60
2022-07-28T03:31:03.977Z,60.90
2022-07-28T03:33:32.046Z,61.40
2022-07-28T03:36:06.834Z,62.10
2022-07-28T03:38:38.983Z,62.90
2022-07-28T03:41:09.241Z,63.40
2022-07-28T03:43:37.233Z,63.60
2022-07-28T03:46:06.598Z,64.10
2022-07-28T03:48:38.194Z,64.40
2022-07-28T03:51:05.384Z,65.00
2022-07-28T03:53:32.609Z,66.30
2022-07-28T03:55:59.931Z,67.10
2022-07-28T03:58:28.879Z,68.10
2022-07-28T04:00:57.632Z,68.80
2022-07-28T04:03:41.172Z,69.70
2022-07-28T04:06:12.398Z,70.50
2022-07-28T04:08:39.661Z,72.10
2022-07-28T04:11:07.070Z,73.20
2022-07-28T04:13:36.674Z,74.20
2022-07-28T04:16:04.583Z,75.60
2022-07-28T04:18:31.815Z,77.40
2022-07-28T04:20:59.223Z,79.80
2022-07-28T04:23:26.582Z,82.50
2022-07-28T04:25:53.849Z,84.90
2022-07-28T04:28:21.032Z,87.70
2022-07-28T04:30:48.286Z,90.30
2022-07-28T04:33:15.733Z,91.60
2022-07-28T04:35:42.953Z,92.60
2022-07-28T04:38:12.150Z,93.50
2022-07-28T04:40:39.439Z,94.60
2022-07-28T04:43:06.654Z,95.30
2022-07-28T04:45:34.293Z,96.20
2022-07-28T04:48:01.506Z,96.90
2022-07-28T04:50:28.793Z,97.60
2022-07-28T04:52:59.519Z,98.20
2022-07-28T04:55:27.016Z,98.60
2022-07-28T04:57:54.246Z,99.00
2022-07-28T05:00:22.736Z,99.60
2022-07-28T05:02:51.540Z,99.90
2022-07-28T05:05:19.164Z,99.90
2022-07-28T05:07:46.467Z,99.90
2022-07-28T05:10:13.809Z,99.90
2022-07-28T05:12:41.138Z,99.90
2022-07-28T05:15:09.595Z,99.90
2022-07-28T05:17:39.914Z,99.90
2022-07-28T05:20:08.609Z,99.90
2022-07-28T05:22:57.387Z,99.90
2022-07-28T05:25:25.954Z,99.90
2022-07-28T05:27:54.526Z,99.90
2022-07-28T05:30:22.063Z,99.90
2022-07-28T05:32:49.488Z,99.90
2022-07-28T05:35:17.127Z,99.90
2022-07-28T05:37:44.379Z,99.90
2022-07-28T05:40:14.627Z,99.90
2022-07-28T05:42:47.498Z,99.90
2022-07-28T05:45:16.953Z,99.90
2022-07-28T05:47:46.790Z,99.90
2022-07-28T05:50:15.776Z,99.90
2022-07-28T05:52:43.399Z,99.90
2022-07-28T05:55:10.997Z,99.90
2022-07-28T05:57:39.538Z,99.90
2022-07-28T06:00:12.441Z,99.90
2022-07-28T06:02:40.543Z,99.90
2022-07-28T06:05:08.558Z,99.90
2022-07-28T06:07:42.277Z,99.90
2022-07-28T06:10:12.955Z,99.90
2022-07-28T06:12:45.359Z,99.90
2022-07-28T06:15:23.769Z,99.90
2022-07-28T06:17:52.725Z,99.90
2022-07-28T06:20:24.510Z,99.90
2022-07-28T06:22:54.043Z,99.90
2022-07-28T06:25:25.302Z,99.90
2022-07-28T06:27:57.071Z,99.90
2022-07-28T06:30:24.869Z,99.90
2022-07-28T06:32:52.535Z,99.90
2022-07-28T06:35:20.691Z,99.90
2022-07-28T06:37:50.228Z,99.90
2022-07-28T06:40:19.462Z,99.90
2022-07-28T06:42:47.317Z,99.90
2022-07-28T06:45:20.912Z,99.90
2022-07-28T06:47:53.025Z,99.90
2022-07-28T06:50:25.800Z,99.90
2022-07-28T06:52:56.568Z,99.90
2022-07-28T06:55:24.023Z,99.90
2022-07-28T06:57:51.383Z,99.90
2022-07-28T07:00:18.905Z,99.90
2022-07-28T07:02:46.123Z,99.90
2022-07-28T07:05:13.993Z,99.90
2022-07-28T07:07:43.477Z,99.90
2022-07-28T07:10:11.683Z,99.90
2022-07-28T07:12:39.239Z,99.90
2022-07-28T07:15:07.549Z,99.90
2022-07-28T07:17:37.390Z,99.90
2022-07-28T07:20:06.693Z,99.90
2022-07-28T07:22:33.905Z,99.90
2022-07-28T07:25:19.373Z,99.90
2022-07-28T07:27:46.957Z,99.90
2022-07-28T07:30:15.148Z,99.90
2022-07-28T07:32:42.758Z,99.90
2022-07-28T07:35:10.323Z,99.90
2022-07-28T07:37:37.991Z,99.90
2022-07-28T07:40:06.397Z,99.90
2022-07-28T07:42:33.759Z,99.90
2022-07-28T07:45:01.169Z,99.90
2022-07-28T07:47:31.155Z,99.90
2022-07-28T07:50:03.873Z,99.90
2022-07-28T07:52:32.242Z,99.90
2022-07-28T07:54:59.522Z,99.90
2022-07-28T07:57:26.730Z,99.90
2022-07-28T07:59:53.932Z,99.90
2022-07-28T08:02:21.194Z,99.90
2022-07-28T08:04:48.468Z,99.90
2022-07-28T08:07:15.876Z,99.90
2022-07-28T08:09:43.050Z,99.90
2022-07-28T08:12:10.429Z,99.90
2022-07-28T08:14:37.636Z,99.90
2022-07-28T08:17:04.907Z,99.90
2022-07-28T08:19:32.253Z,99.90
2022-07-28T08:22:00.855Z,99.90
2022-07-28T08:24:33.791Z,99.90
2022-07-28T08:27:06.834Z,99.90
2022-07-28T08:29:34.009Z,99.90
2022-07-28T08:32:06.344Z,99.90
2022-07-28T08:34:34.383Z,99.90
2022-07-28T08:37:03.312Z,99.90
2022-07-28T08:39:34.263Z,99.90
2022-07-28T08:42:13.628Z,99.90
2022-07-28T08:45:03.311Z,99.90
2022-07-28T08:47:45.990Z,99.90
2022-07-28T08:50:24.224Z,99.90
2022-07-28T08:52:53.099Z,99.90
2022-07-28T08:55:25.560Z,99.90
2022-07-28T08:58:00.429Z,99.90
2022-07-28T09:00:28.266Z,99.90
2022-07-28T09:02:56.138Z,99.90
2022-07-28T09:05:24.416Z,99.90
2022-07-28T09:07:55.345Z,99.90
2022-07-28T09:10:23.585Z,99.90
2022-07-28T09:12:51.266Z,99.90
2022-07-28T09:15:18.588Z,99.90
2022-07-28T09:17:45.881Z,99.90
2022-07-28T09:20:13.950Z,99.90
2022-07-28T09:22:59.860Z,99.90
2022-07-28T09:25:28.125Z,99.90
2022-07-28T09:27:56.269Z,99.90
2022-07-28T09:30:31.513Z,99.90
2022-07-28T09:33:41.066Z,99.90
2022-07-28T09:36:15.429Z,99.90
2022-07-28T09:38:43.132Z,99.90
2022-07-28T09:41:10.928Z,99.90
2022-07-28T09:43:44.074Z,99.90
2022-07-28T09:46:23.115Z,99.90
2022-07-28T09:48:50.826Z,99.90
2022-07-28T09:51:29.329Z,99.90
2022-07-28T09:54:19.798Z,99.90
2022-07-28T09:56:47.372Z,99.90
2022-07-28T09:59:16.132Z,99.90
2022-07-28T10:01:59.747Z,99.90
2022-07-28T10:04:32.592Z,99.90
2022-07-28T10:07:09.845Z,99.90
2022-07-28T10:09:40.755Z,99.90
2022-07-28T10:12:22.520Z,99.90
2022-07-28T10:14:52.364Z,99.90
2022-07-28T10:17:29.265Z,99.90
2022-07-28T10:20:06.054Z,99.90
2022-07-28T10:22:38.277Z,99.90
2022-07-28T10:25:10.615Z,99.90
2022-07-28T10:27:41.484Z,99.90
2022-07-28T10:30:10.596Z,99.90
2022-07-28T10:32:47.220Z,99.90
2022-07-28T10:35:16.408Z,99.90
2022-07-28T10:38:09.375Z,99.90
2022-07-28T10:40:42.011Z,99.90
2022-07-28T10:43:09.423Z,99.90
2022-07-28T10:46:03.928Z,99.90
2022-07-28T10:48:26.740Z,99.90
2022-07-28T10:50:56.872Z,99.90
2022-07-28T10:53:40.907Z,99.90
2022-07-28T10:56:15.798Z,99.90
2022-07-28T10:59:05.765Z,99.90
2022-07-28T11:01:53.821Z,99.90
2022-07-28T11:04:51.730Z,99.90
2022-07-28T11:07:20.235Z,99.90
2022-07-28T11:09:47.976Z,99.90
2022-07-28T11:12:16.104Z,99.90
2022-07-28T11:14:44.753Z,99.90
2022-07-28T11:17:17.164Z,99.90
2022-07-28T11:22:41.199Z,99.90
2022-07-28T11:25:18.554Z,99.90
2022-07-28T11:27:52.342Z,99.90
2022-07-28T11:30:22.740Z,99.80
2022-07-28T11:32:55.884Z,99.90
2022-07-28T11:35:43.141Z,99.90
2022-07-28T11:38:12.543Z,99.50
2022-07-28T11:40:46.910Z,99.70
2022-07-28T11:43:35.615Z,99.90
2022-07-28T11:46:08.193Z,99.60
2022-07-28T11:48:44.792Z,98.40
2022-07-28T11:51:13.905Z,99.00
2022-07-28T11:53:48.966Z,99.00
2022-07-28T11:56:21.884Z,98.90
2022-07-28T11:58:59.611Z,98.90
2022-07-28T12:01:27.208Z,98.80
2022-07-28T12:03:59.695Z,98.60
2022-07-28T12:06:36.560Z,98.00
2022-07-28T12:09:06.338Z,97.90
2022-07-28T12:11:36.259Z,98.10
2022-07-28T12:14:09.213Z,96.50
2022-07-28T12:16:39.744Z,96.80
2022-07-28T12:19:08.907Z,96.70
2022-07-28T12:21:46.351Z,96.60
2022-07-28T12:24:26.158Z,96.10
2022-07-28T12:26:53.950Z,95.00
2022-07-28T12:29:21.624Z,94.10
2022-07-28T12:31:59.368Z,93.90
2022-07-28T12:34:29.136Z,93.10
2022-07-28T12:37:04.344Z,92.80
2022-07-28T12:39:34.526Z,92.90
2022-07-28T12:42:07.808Z,92.20
2022-07-28T12:44:38.987Z,92.50
2022-07-28T12:47:10.863Z,92.00
2022-07-28T12:49:41.608Z,91.70
2022-07-28T12:52:35.084Z,91.40
2022-07-28T12:55:02.324Z,86.60
2022-07-28T12:57:51.621Z,84.10
2022-07-28T13:00:22.451Z,82.60
2022-07-28T13:02:51.216Z,81.40
2022-07-28T13:06:02.763Z,80.40
2022-07-28T13:08:44.386Z,76.90
2022-07-28T13:11:41.882Z,74.80
2022-07-28T13:14:01.581Z,72.00
2022-07-28T13:16:30.065Z,68.10
2022-07-28T13:19:02.673Z,62.80
2022-07-28T13:21:58.358Z,60.70
2022-07-28T13:24:29.464Z,57.90
2022-07-28T13:26:58.250Z,54.60
2022-07-28T13:29:25.873Z,51.60
2022-07-28T13:31:54.898Z,49.80
2022-07-28T13:34:22.470Z,48.20
2022-07-28T13:36:49.770Z,49.00
2022-07-28T13:39:16.985Z,48.80
2022-07-28T13:41:57.991Z,49.90
2022-07-28T13:44:27.751Z,48.30
2022-07-28T13:46:56.032Z,48.70
2022-07-28T13:49:24.768Z,48.60
2022-07-28T13:51:51.958Z,48.90
2022-07-28T13:54:20.772Z,48.30
2022-07-28T13:57:06.896Z,47.60
2022-07-28T13:59:36.140Z,46.80
2022-07-28T14:02:04.971Z,46.50
2022-07-28T14:04:32.349Z,45.70
2022-07-28T14:06:59.890Z,44.80
2022-07-28T14:09:27.080Z,45.60
2022-07-28T14:11:54.338Z,45.90
2022-07-28T14:14:24.714Z,46.60
2022-07-28T14:16:54.365Z,47.90
2022-07-28T14:19:39.055Z,48.20
2022-07-28T14:22:13.286Z,49.20
2022-07-28T14:24:44.530Z,50.60
2022-07-28T14:27:11.913Z,51.40
2022-07-28T14:29:39.728Z,51.90
2022-07-28T14:32:07.219Z,52.40
2022-07-28T14:34:35.071Z,51.90
2022-07-28T14:37:04.845Z,52.40
2022-07-28T14:39:37.181Z,53.20
2022-07-28T14:42:05.170Z,51.30
2022-07-28T14:44:32.517Z,51.00
2022-07-28T14:46:59.733Z,50.40
2022-07-28T14:49:27.124Z,50.70
2022-07-28T14:51:56.096Z,50.60
2022-07-28T14:54:23.298Z,50.10
2022-07-28T14:56:50.562Z,49.80
2022-07-28T14:59:18.041Z,49.00
2022-07-28T15:01:48.672Z,48.30
2022-07-28T15:04:17.015Z,47.90
2022-07-28T15:06:44.718Z,47.40
2022-07-28T15:09:12.049Z,47.70
2022-07-28T15:11:41.155Z,48.30
2022-07-28T15:14:08.630Z,49.60
2022-07-28T15:16:36.185Z,49.70
2022-07-28T15:19:03.606Z,50.10
2022-07-28T15:21:36.204Z,49.20
2022-07-28T15:24:04.418Z,49.40
2022-07-28T15:26:31.819Z,50.30
2022-07-28T15:28:59.205Z,50.30
2022-07-28T15:31:26.750Z,49.80
2022-07-28T15:33:58.292Z,50.00
2022-07-28T15:36:26.289Z,48.90
2022-07-28T15:38:54.256Z,48.10
2022-07-28T15:41:21.640Z,48.10
2022-07-28T15:43:48.918Z,48.10
2022-07-28T15:46:16.398Z,48.70
2022-07-28T15:48:44.764Z,48.00
2022-07-28T15:51:12.492Z,49.20
2022-07-28T15:53:41.247Z,49.80
2022-07-28T15:56:08.890Z,48.50
2022-07-28T15:58:36.637Z,48.40
2022-07-28T16:01:04.170Z,48.50
2022-07-28T16:03:31.468Z,47.20
2022-07-28T16:05:59.057Z,47.10
2022-07-28T16:08:26.646Z,47.00
2022-07-28T16:10:54.933Z,46.80
2022-07-28T16:13:35.801Z,46.20
2022-07-28T16:16:12.604Z,45.30
2022-07-28T16:18:43.108Z,44.60
2022-07-28T16:21:11.242Z,44.50
2022-07-28T16:23:38.677Z,46.20
2022-07-28T16:26:08.035Z,46.70
2022-07-28T16:28:36.602Z,47.00
2022-07-28T16:31:04.110Z,48.20
2022-07-28T16:33:33.508Z,47.10
2022-07-28T16:36:02.518Z,47.00
2022-07-28T16:38:30.511Z,46.90
2022-07-28T16:40:58.784Z,48.20
2022-07-28T16:43:26.063Z,48.50
2022-07-28T16:45:53.428Z,49.20
2022-07-28T16:48:20.839Z,49.10
2022-07-28T16:50:48.147Z,49.80
2022-07-28T16:53:16.501Z,49.50
2022-07-28T16:55:44.516Z,49.10
2022-07-28T16:58:11.768Z,50.30
2022-07-28T17:00:39.008Z,51.70
2022-07-28T17:03:06.173Z,50.30
2022-07-28T17:05:33.505Z,50.50
2022-07-28T17:08:00.743Z,50.10
2022-07-28T17:10:28.160Z,50.20
2022-07-28T17:12:56.473Z,50.40
2022-07-28T17:15:24.509Z,49.80
2022-07-28T17:17:52.823Z,49.50
2022-07-28T17:20:21.023Z,49.30
2022-07-28T17:22:48.544Z,49.00
2022-07-28T17:25:45.676Z,49.20
2022-07-28T17:28:04.978Z,49.50
2022-07-28T17:30:33.550Z,50.00
2022-07-28T17:33:08.119Z,50.10
2022-07-28T17:35:37.051Z,50.50
2022-07-28T17:38:06.922Z,50.90
2022-07-28T17:40:34.225Z,51.60
2022-07-28T17:43:01.395Z,51.50
2022-07-28T17:45:29.056Z,52.40
2022-07-28T17:47:56.237Z,53.20
2022-07-28T17:50:23.692Z,53.70
2022-07-28T17:52:50.923Z,53.40
2022-07-28T17:56:00.187Z,53.60
2022-07-28T17:58:28.764Z,54.90
2022-07-28T18:00:58.992Z,55.60
2022-07-28T18:03:56.703Z,56.40
2022-07-28T18:06:34.639Z,56.40
2022-07-28T18:09:06.957Z,56.40
2022-07-28T18:11:37.776Z,57.10
2022-07-28T18:14:24.226Z,57.80
2022-07-28T18:16:51.620Z,58.50
2022-07-28T18:19:19.288Z,58.60
2022-07-28T18:21:47.951Z,57.90
2022-07-28T18:24:15.416Z,57.60
2022-07-28T18:26:42.898Z,57.50
2022-07-28T18:29:10.094Z,56.80
2022-07-28T18:31:42.538Z,56.10
2022-07-28T18:34:14.301Z,56.80
2022-07-28T18:36:41.870Z,57.70
2022-07-28T18:39:09.105Z,57.90
2022-07-28T18:41:46.464Z,58.10
2022-07-28T18:44:14.448Z,58.80
2022-07-28T18:46:42.029Z,59.80
2022-07-28T18:49:09.391Z,60.10
2022-07-28T18:51:36.833Z,60.80
2022-07-28T18:54:04.422Z,61.00
2022-07-28T18:56:32.443Z,61.10
2022-07-28T18:58:59.711Z,61.40
2022-07-28T19:01:26.968Z,61.50
2022-07-28T19:03:54.343Z,61.60
2022-07-28T19:06:21.691Z,61.90
2022-07-28T19:08:48.945Z,62.20
2022-07-28T19:11:19.807Z,62.40
2022-07-28T19:13:48.345Z,62.20
2022-07-28T19:16:15.781Z,62.40
2022-07-28T19:18:43.010Z,63.30
2022-07-28T19:21:10.169Z,64.70
2022-07-28T19:23:37.346Z,65.20
2022-07-28T19:26:04.625Z,65.30
2022-07-28T19:28:31.919Z,65.90
2022-07-28T19:31:10.610Z,65.90
2022-07-28T19:33:40.190Z,66.20
2022-07-28T19:36:14.969Z,66.30
2022-07-28T19:38:42.787Z,65.90
2022-07-28T19:41:12.870Z,65.40
2022-07-28T19:43:40.465Z,64.30
2022-07-28T19:46:07.980Z,64.40
2022-07-28T19:48:35.321Z,63.80
2022-07-28T19:51:02.996Z,63.90
2022-07-28T19:53:31.867Z,63.90
2022-07-28T19:56:01.869Z,64.10
2022-07-28T19:58:29.199Z,64.30
2022-07-28T20:00:56.931Z,64.40
2022-07-28T20:04:02.278Z,64.70
2022-07-28T20:06:12.134Z,64.60
2022-07-28T20:08:39.595Z,64.70
2022-07-28T20:11:06.951Z,64.90
2022-07-28T20:13:34.268Z,64.90
2022-07-28T20:16:01.696Z,65.10
2022-07-28T20:18:29.002Z,65.30
2022-07-28T20:20:56.466Z,65.40
2022-07-28T20:23:23.919Z,65.50
2022-07-28T20:25:51.302Z,65.90
2022-07-28T20:28:18.563Z,66.30
2022-07-28T20:30:45.823Z,67.00
2022-07-28T20:33:13.157Z,68.30
2022-07-28T20:35:40.591Z,69.70
2022-07-28T20:38:08.425Z,70.30
2022-07-28T20:40:36.076Z,72.10
2022-07-28T20:43:03.427Z,74.30
2022-07-28T20:45:31.834Z,76.90
2022-07-28T20:47:59.131Z,78.50
2022-07-28T20:50:26.627Z,77.90
2022-07-28T20:52:53.835Z,77.50
2022-07-28T20:55:21.512Z,78.30
2022-07-28T20:57:53.760Z,80.20
2022-07-28T21:00:22.025Z,81.30
2022-07-28T21:02:49.675Z,81.70
2022-07-28T21:05:23.970Z,82.50
2022-07-28T21:08:06.433Z,83.30
2022-07-28T21:10:36.867Z,84.20
2022-07-28T21:13:04.066Z,84.40
2022-07-28T21:15:31.458Z,84.50
2022-07-28T21:17:59.107Z,83.30
2022-07-28T21:20:26.693Z,82.00
2022-07-28T21:22:54.076Z,82.50
2022-07-28T21:25:21.987Z,82.50
2022-07-28T21:28:07.640Z,82.70
2022-07-28T21:30:34.930Z,82.60
2022-07-28T21:33:02.347Z,83.80
2022-07-28T21:35:29.837Z,84.40
2022-07-28T21:37:57.041Z,84.50
2022-07-28T21:40:24.660Z,85.30
2022-07-28T21:42:52.639Z,86.90
2022-07-28T21:45:20.541Z,89.40
2022-07-28T21:47:47.876Z,91.00
2022-07-28T21:50:15.151Z,91.30
2022-07-28T21:52:42.412Z,91.40
2022-07-28T21:55:10.270Z,91.50
2022-07-28T21:57:38.266Z,91.70
2022-07-28T22:00:08.593Z,91.70
2022-07-28T22:02:35.799Z,91.60
2022-07-28T22:05:05.043Z,91.70
2022-07-28T22:07:32.593Z,92.00
2022-07-28T22:09:59.798Z,92.40
2022-07-28T22:12:27.014Z,92.70
2022-07-28T22:14:54.205Z,92.90
2022-07-28T22:17:22.719Z,93.00
2022-07-28T22:19:49.902Z,93.10
2022-07-28T22:22:18.428Z,93.10
2022-07-28T22:24:46.192Z,93.20
2022-07-28T22:27:13.468Z,93.20
2022-07-28T22:29:43.504Z,93.00
2022-07-28T22:32:17.362Z,93.00
2022-07-28T22:34:53.843Z,93.20
2022-07-28T22:37:21.050Z,93.30
2022-07-28T22:39:48.362Z,93.40
2022-07-28T22:42:15.712Z,93.50
2022-07-28T22:44:43.013Z,93.60
2022-07-28T22:47:10.334Z,93.20
2022-07-28T22:49:37.543Z,92.60
2022-07-28T22:52:05.018Z,91.60
2022-07-28T22:54:32.157Z,91.60
2022-07-28T22:56:59.560Z,91.30
2022-07-28T22:59:27.200Z,90.90
2022-07-28T23:01:57.985Z,90.90
2022-07-28T23:04:25.615Z,90.80
2022-07-28T23:06:54.487Z,91.00
2022-07-28T23:09:21.822Z,91.60
2022-07-28T23:11:55.741Z,92.40
2022-07-28T23:14:23.509Z,93.00
2022-07-28T23:16:50.891Z,93.50
2022-07-28T23:19:18.179Z,93.80
2022-07-28T23:21:45.534Z,94.00
2022-07-28T23:24:12.984Z,94.40
2022-07-28T23:26:40.529Z,95.10
2022-07-28T23:29:07.973Z,95.50
2022-07-28T23:31:35.380Z,95.60
2022-07-28T23:34:02.997Z,95.70
2022-07-28T23:36:30.238Z,95.80
2022-07-28T23:38:58.693Z,95.90
2022-07-28T23:41:26.981Z,96.10
2022-07-28T23:43:55.726Z,96.20
2022-07-28T23:46:23.418Z,96.30
2022-07-28T23:48:50.929Z,96.00
2022-07-28T23:51:18.464Z,96.10
2022-07-28T23:53:45.721Z,96.00
2022-07-28T23:56:14.954Z,96.00
2022-07-28T23:58:42.360Z,95.50
